Terminal Aerodrome Forecast
Issued by NWS

Home | Current Version | Previous Version | Text Only | Print | Product List | Glossary On
Versions: 1 2 3 4 5 6 7 8 9 10 11 12 13 14 15 16 17 18 19 20 21 22 23 24 25
327
FTUS46 KSEW 030530
TAFSEA
TAF
KSEA 030530Z 0306/0412 15007KT P6SM SCT130
     FM031200 19003KT P6SM SCT130 BKN250
     FM032000 24007KT P6SM SCT130 BKN250
     FM040200 24010G18KT P6SM VCSH BKN050 OVC110=

USA.gov is the U.S. government's official web portal to all federal, state and local government web resources and services.